sensor_id;sensor_type;location;lat;lon;timestamp;pressure;altitude;pressure_sealevel;temperature;humidity
55187;BME280;55457;52.002;5.464;2023-07-09T00:01:16;101536.09;;;24.61;63.84
55187;BME280;55457;52.002;5.464;2023-07-09T00:03:43;101529.81;;;24.60;63.92
55187;BME280;55457;52.002;5.464;2023-07-09T00:06:09;101532.53;;;24.60;63.64
55187;BME280;55457;52.002;5.464;2023-07-09T00:08:34;101535.25;;;24.60;63.85
55187;BME280;55457;52.002;5.464;2023-07-09T00:11:00;101533.63;;;24.59;64.11
55187;BME280;55457;52.002;5.464;2023-07-09T00:13:27;101528.66;;;24.56;63.96
55187;BME280;55457;52.002;5.464;2023-07-09T00:15:56;101541.78;;;24.59;64.08
55187;BME280;55457;52.002;5.464;2023-07-09T00:18:22;101544.75;;;24.58;64.22
55187;BME280;55457;52.002;5.464;2023-07-09T00:20:48;101545.84;;;24.57;64.31
55187;BME280;55457;52.002;5.464;2023-07-09T00:23:14;101556.72;;;24.57;64.15
55187;BME280;55457;52.002;5.464;2023-07-09T00:25:43;101556.72;;;24.57;64.16
55187;BME280;55457;52.002;5.464;2023-07-09T00:28:19;101545.84;;;24.57;64.20
55187;BME280;55457;52.002;5.464;2023-07-09T00:30:46;101553.19;;;24.56;64.15
55187;BME280;55457;52.002;5.464;2023-07-09T00:33:13;101555.91;;;24.56;64.10
55187;BME280;55457;52.002;5.464;2023-07-09T00:35:44;101560.28;;;24.57;64.05
55187;BME280;55457;52.002;5.464;2023-07-09T00:38:20;101557.56;;;24.57;64.17
55187;BME280;55457;52.002;5.464;2023-07-09T00:41:12;101561.91;;;24.58;64.34
55187;BME280;55457;52.002;5.464;2023-07-09T00:43:43;101562.44;;;24.55;64.29
55187;BME280;55457;52.002;5.464;2023-07-09T00:48:54;101571.19;;;24.57;64.02
55187;BME280;55457;52.002;5.464;2023-07-09T00:51:24;101561.09;;;24.58;64.07
55187;BME280;55457;52.002;5.464;2023-07-09T00:53:53;101561.91;;;24.58;64.06
55187;BME280;55457;52.002;5.464;2023-07-09T00:56:27;101556.72;;;24.57;64.13
55187;BME280;55457;52.002;5.464;2023-07-09T00:58:58;101560.28;;;24.57;64.21
55187;BME280;55457;52.002;5.464;2023-07-09T01:01:29;101559.19;;;24.58;64.22
55187;BME280;55457;52.002;5.464;2023-07-09T01:03:57;101568.47;;;24.57;64.28
55187;BME280;55457;52.002;5.464;2023-07-09T01:06:37;101560.28;;;24.57;64.01
55187;BME280;55457;52.002;5.464;2023-07-09T01:09:06;101560.28;;;24.57;64.11
55187;BME280;55457;52.002;5.464;2023-07-09T01:11:32;101564.66;;;24.58;64.10
55187;BME280;55457;52.002;5.464;2023-07-09T01:14:00;101559.19;;;24.58;63.94
55187;BME280;55457;52.002;5.464;2023-07-09T01:16:36;101557.56;;;24.57;64.11
55187;BME280;55457;52.002;5.464;2023-07-09T01:19:03;101557.56;;;24.57;63.84
55187;BME280;55457;52.002;5.464;2023-07-09T01:21:29;101566.81;;;24.56;64.44
55187;BME280;55457;52.002;5.464;2023-07-09T01:23:55;101561.38;;;24.56;64.17
55187;BME280;55457;52.002;5.464;2023-07-09T01:26:25;101561.09;;;24.58;64.11
55187;BME280;55457;52.002;5.464;2023-07-09T01:28:54;101569.53;;;24.56;64.17
55187;BME280;55457;52.002;5.464;2023-07-09T01:31:20;101565.72;;;24.57;64.00
55187;BME280;55457;52.002;5.464;2023-07-09T01:33:49;101566.81;;;24.56;64.10
55187;BME280;55457;52.002;5.464;2023-07-09T01:36:20;101566.00;;;24.56;64.18
55187;BME280;55457;52.002;5.464;2023-07-09T01:38:47;101570.34;;;24.57;64.07
55187;BME280;55457;52.002;5.464;2023-07-09T01:41:15;101572.25;;;24.56;64.37
55187;BME280;55457;52.002;5.464;2023-07-09T01:43:41;101572.53;;;24.55;64.11
55187;BME280;55457;52.002;5.464;2023-07-09T01:46:08;101570.63;;;24.55;64.17
55187;BME280;55457;52.002;5.464;2023-07-09T01:48:34;101574.44;;;24.54;64.20
55187;BME280;55457;52.002;5.464;2023-07-09T01:51:07;101575.25;;;24.55;64.09
55187;BME280;55457;52.002;5.464;2023-07-09T01:53:33;101576.06;;;24.55;63.90
55187;BME280;55457;52.002;5.464;2023-07-09T01:55:58;101580.69;;;24.55;63.97
55187;BME280;55457;52.002;5.464;2023-07-09T01:58:24;101575.25;;;24.55;63.98
55187;BME280;55457;52.002;5.464;2023-07-09T02:00:50;101576.06;;;24.55;63.96
55187;BME280;55457;52.002;5.464;2023-07-09T02:03:16;101570.63;;;24.55;63.96
55187;BME280;55457;52.002;5.464;2023-07-09T02:05:43;101583.16;;;24.56;63.88
55187;BME280;55457;52.002;5.464;2023-07-09T02:08:09;101576.06;;;24.55;63.77
55187;BME280;55457;52.002;5.464;2023-07-09T02:10:34;101582.34;;;24.56;63.83
55187;BME280;55457;52.002;5.464;2023-07-09T02:12:59;101576.91;;;24.56;63.84
55187;BME280;55457;52.002;5.464;2023-07-09T02:15:25;101580.44;;;24.56;63.40
55187;BME280;55457;52.002;5.464;2023-07-09T02:17:51;101572.25;;;24.56;63.60
55187;BME280;55457;52.002;5.464;2023-07-09T02:20:17;101574.16;;;24.56;63.95
55187;BME280;55457;52.002;5.464;2023-07-09T02:22:44;101567.91;;;24.55;63.84
55187;BME280;55457;52.002;5.464;2023-07-09T02:25:10;101576.06;;;24.55;63.84
55187;BME280;55457;52.002;5.464;2023-07-09T02:27:36;101577.72;;;24.56;63.96
55187;BME280;55457;52.002;5.464;2023-07-09T02:30:02;101569.53;;;24.56;63.74
55187;BME280;55457;52.002;5.464;2023-07-09T02:32:28;101563.53;;;24.54;64.05
55187;BME280;55457;52.002;5.464;2023-07-09T02:34:54;101567.91;;;24.55;63.79
55187;BME280;55457;52.002;5.464;2023-07-09T02:37:23;101565.19;;;24.55;63.67
55187;BME280;55457;52.002;5.464;2023-07-09T02:39:49;101565.19;;;24.55;63.61
55187;BME280;55457;52.002;5.464;2023-07-09T02:42:16;101570.63;;;24.55;63.83
55187;BME280;55457;52.002;5.464;2023-07-09T02:44:42;101564.34;;;24.55;63.91
55187;BME280;55457;52.002;5.464;2023-07-09T02:47:08;101559.72;;;24.55;63.83
55187;BME280;55457;52.002;5.464;2023-07-09T02:49:34;101574.16;;;24.56;63.78
55187;BME280;55457;52.002;5.464;2023-07-09T02:52:00;101572.53;;;24.55;63.78
55187;BME280;55457;52.002;5.464;2023-07-09T02:54:25;101572.25;;;24.56;63.61
55187;BME280;55457;52.002;5.464;2023-07-09T02:56:50;101573.34;;;24.55;63.51
55187;BME280;55457;52.002;5.464;2023-07-09T02:59:16;101580.44;;;24.56;63.76
55187;BME280;55457;52.002;5.464;2023-07-09T03:01:42;101581.53;;;24.55;63.75
55187;BME280;55457;52.002;5.464;2023-07-09T03:04:08;101580.44;;;24.56;63.87
55187;BME280;55457;52.002;5.464;2023-07-09T03:06:35;101571.44;;;24.56;63.90
55187;BME280;55457;52.002;5.464;2023-07-09T03:09:01;101569.81;;;24.55;63.78
55187;BME280;55457;52.002;5.464;2023-07-09T03:11:29;101575.25;;;24.55;63.69
55187;BME280;55457;52.002;5.464;2023-07-09T03:13:55;101575.25;;;24.55;63.77
55187;BME280;55457;52.002;5.464;2023-07-09T03:16:20;101570.63;;;24.55;63.76
55187;BME280;55457;52.002;5.464;2023-07-09T03:18:46;101575.25;;;24.55;63.55
55187;BME280;55457;52.002;5.464;2023-07-09T03:21:11;101576.91;;;24.56;63.90
55187;BME280;55457;52.002;5.464;2023-07-09T03:23:37;101572.53;;;24.55;63.90
55187;BME280;55457;52.002;5.464;2023-07-09T03:26:02;101581.53;;;24.55;63.76
55187;BME280;55457;52.002;5.464;2023-07-09T03:28:31;101581.53;;;24.55;63.84
55187;BME280;55457;52.002;5.464;2023-07-09T03:30:56;101580.69;;;24.55;63.75
55187;BME280;55457;52.002;5.464;2023-07-09T03:33:22;101585.34;;;24.54;63.77
55187;BME280;55457;52.002;5.464;2023-07-09T03:35:50;101582.59;;;24.54;63.72
55187;BME280;55457;52.002;5.464;2023-07-09T03:38:16;101589.69;;;24.55;63.70
55187;BME280;55457;52.002;5.464;2023-07-09T03:40:41;101580.94;;;24.53;63.72
55187;BME280;55457;52.002;5.464;2023-07-09T03:43:08;101582.59;;;24.54;63.70
55187;BME280;55457;52.002;5.464;2023-07-09T03:45:34;101577.16;;;24.54;63.58
55187;BME280;55457;52.002;5.464;2023-07-09T03:48:00;101578.78;;;24.55;63.83
55187;BME280;55457;52.002;5.464;2023-07-09T03:50:26;101578.78;;;24.55;63.92
55187;BME280;55457;52.002;5.464;2023-07-09T03:52:52;101579.88;;;24.54;63.70
55187;BME280;55457;52.002;5.464;2023-07-09T03:55:17;101588.63;;;24.56;63.66
55187;BME280;55457;52.002;5.464;2023-07-09T03:57:43;101594.56;;;24.53;63.89
55187;BME280;55457;52.002;5.464;2023-07-09T04:00:08;101590.78;;;24.54;63.62
55187;BME280;55457;52.002;5.464;2023-07-09T04:02:38;101596.22;;;24.54;63.59
55187;BME280;55457;52.002;5.464;2023-07-09T04:05:04;101590.78;;;24.54;63.65
55187;BME280;55457;52.002;5.464;2023-07-09T04:07:30;101591.59;;;24.55;63.75
55187;BME280;55457;52.002;5.464;2023-07-09T04:09:55;101589.69;;;24.55;63.63
55187;BME280;55457;52.002;5.464;2023-07-09T04:12:20;101579.88;;;24.54;63.65
55187;BME280;55457;52.002;5.464;2023-07-09T04:14:46;101588.06;;;24.54;63.84
55187;BME280;55457;52.002;5.464;2023-07-09T04:17:11;101580.69;;;24.55;63.77
55187;BME280;55457;52.002;5.464;2023-07-09T04:19:37;101580.69;;;24.55;63.64
55187;BME280;55457;52.002;5.464;2023-07-09T04:22:02;101581.53;;;24.55;63.90
55187;BME280;55457;52.002;5.464;2023-07-09T04:24:28;101590.78;;;24.54;63.73
55187;BME280;55457;52.002;5.464;2023-07-09T04:26:53;101588.06;;;24.54;63.79
55187;BME280;55457;52.002;5.464;2023-07-09T04:29:22;101590.78;;;24.54;63.80
55187;BME280;55457;52.002;5.464;2023-07-09T04:31:47;101588.06;;;24.54;63.76
55187;BME280;55457;52.002;5.464;2023-07-09T04:34:13;101590.53;;;24.56;63.70
55187;BME280;55457;52.002;5.464;2023-07-09T04:36:38;101590.53;;;24.56;63.56
55187;BME280;55457;52.002;5.464;2023-07-09T04:39:04;101590.53;;;24.56;63.66
55187;BME280;55457;52.002;5.464;2023-07-09T04:41:29;101586.16;;;24.55;63.43
55187;BME280;55457;52.002;5.464;2023-07-09T04:43:55;101587.78;;;24.56;63.90
55187;BME280;55457;52.002;5.464;2023-07-09T04:46:20;101592.44;;;24.55;63.83
55187;BME280;55457;52.002;5.464;2023-07-09T04:48:46;101595.72;;;24.57;64.08
55187;BME280;55457;52.002;5.464;2023-07-09T04:51:11;101590.25;;;24.57;63.86
55187;BME280;55457;52.002;5.464;2023-07-09T04:53:36;101577.72;;;24.56;63.84
55187;BME280;55457;52.002;5.464;2023-07-09T04:56:02;101575.00;;;24.56;63.84
55187;BME280;55457;52.002;5.464;2023-07-09T04:58:28;101569.28;;;24.58;63.49
55187;BME280;55457;52.002;5.464;2023-07-09T05:00:57;101563.00;;;24.57;63.63
55187;BME280;55457;52.002;5.464;2023-07-09T05:03:23;101559.72;;;24.55;63.77
55187;BME280;55457;52.002;5.464;2023-07-09T05:05:48;101573.91;;;24.57;63.70
55187;BME280;55457;52.002;5.464;2023-07-09T05:08:14;101569.28;;;24.58;63.86
55187;BME280;55457;52.002;5.464;2023-07-09T05:10:44;101573.63;;;24.59;63.65
55187;BME280;55457;52.002;5.464;2023-07-09T05:13:10;101581.00;;;24.58;63.71
55187;BME280;55457;52.002;5.464;2023-07-09T05:15:39;101572.00;;;24.58;63.75
55187;BME280;55457;52.002;5.464;2023-07-09T05:18:04;101576.38;;;24.59;64.04
55187;BME280;55457;52.002;5.464;2023-07-09T05:20:30;101576.38;;;24.59;63.98
55187;BME280;55457;52.002;5.464;2023-07-09T05:22:55;101582.66;;;24.59;64.12
55187;BME280;55457;52.002;5.464;2023-07-09T05:25:21;101588.94;;;24.60;63.93
55187;BME280;55457;52.002;5.464;2023-07-09T05:27:46;101588.13;;;24.59;64.20
55187;BME280;55457;52.002;5.464;2023-07-09T05:30:12;101581.59;;;24.60;64.41
55187;BME280;55457;52.002;5.464;2023-07-09T05:32:37;101582.66;;;24.59;64.48
55187;BME280;55457;52.002;5.464;2023-07-09T05:35:03;101578.28;;;24.58;64.69
55187;BME280;55457;52.002;5.464;2023-07-09T05:37:29;101583.50;;;24.60;64.34
55187;BME280;55457;52.002;5.464;2023-07-09T05:39:54;101581.59;;;24.60;64.32
55187;BME280;55457;52.002;5.464;2023-07-09T05:42:20;101573.41;;;24.60;64.50
55187;BME280;55457;52.002;5.464;2023-07-09T05:44:45;101578.88;;;24.60;64.48
55187;BME280;55457;52.002;5.464;2023-07-09T05:47:11;101580.50;;;24.61;65.07
55187;BME280;55457;52.002;5.464;2023-07-09T05:49:37;101581.31;;;24.62;64.92
55187;BME280;55457;52.002;5.464;2023-07-09T05:52:03;101581.31;;;24.62;64.86
55187;BME280;55457;52.002;5.464;2023-07-09T05:54:29;101582.16;;;24.62;64.87
55187;BME280;55457;52.002;5.464;2023-07-09T05:56:54;101583.78;;;24.63;64.51
55187;BME280;55457;52.002;5.464;2023-07-09T05:59:19;101585.47;;;24.64;64.03
55187;BME280;55457;52.002;5.464;2023-07-09T06:01:45;101587.09;;;24.65;63.87
55187;BME280;55457;52.002;5.464;2023-07-09T06:04:11;101591.47;;;24.66;63.94
55187;BME280;55457;52.002;5.464;2023-07-09T06:06:39;101586.56;;;24.68;63.90
55187;BME280;55457;52.002;5.464;2023-07-09T06:09:06;101587.41;;;24.69;64.17
55187;BME280;55457;52.002;5.464;2023-07-09T06:11:32;101589.88;;;24.70;64.29
55187;BME280;55457;52.002;5.464;2023-07-09T06:13:57;101582.78;;;24.69;64.64
55187;BME280;55457;52.002;5.464;2023-07-09T06:16:23;101592.34;;;24.72;64.52
55187;BME280;55457;52.002;5.464;2023-07-09T06:18:49;101594.00;;;24.73;64.71
55187;BME280;55457;52.002;5.464;2023-07-09T06:21:14;101599.22;;;24.75;64.71
55187;BME280;55457;52.002;5.464;2023-07-09T06:23:40;101602.75;;;24.75;64.82
55187;BME280;55457;52.002;5.464;2023-07-09T06:26:05;101604.41;;;24.76;64.94
55187;BME280;55457;52.002;5.464;2023-07-09T06:28:32;101603.31;;;24.77;65.14
55187;BME280;55457;52.002;5.464;2023-07-09T06:30:58;101606.03;;;24.77;65.25
55187;BME280;55457;52.002;5.464;2023-07-09T06:33:24;101606.59;;;24.79;65.19
55187;BME280;55457;52.002;5.464;2023-07-09T06:35:53;101609.31;;;24.79;65.09
55187;BME280;55457;52.002;5.464;2023-07-09T06:38:19;101615.63;;;24.80;65.18
55187;BME280;55457;52.002;5.464;2023-07-09T06:40:44;101606.38;;;24.81;65.24
55187;BME280;55457;52.002;5.464;2023-07-09T06:43:10;101612.63;;;24.81;65.45
55187;BME280;55457;52.002;5.464;2023-07-09T06:45:35;101614.28;;;24.82;65.45
55187;BME280;55457;52.002;5.464;2023-07-09T06:48:01;101610.72;;;24.82;65.51
55187;BME280;55457;52.002;5.464;2023-07-09T06:50:26;101612.94;;;24.85;65.61
55187;BME280;55457;52.002;5.464;2023-07-09T06:52:52;101605.84;;;24.84;65.36
55187;BME280;55457;52.002;5.464;2023-07-09T06:55:17;101602.88;;;24.85;65.50
55187;BME280;55457;52.002;5.464;2023-07-09T06:57:43;101610.78;;;24.87;65.45
55187;BME280;55457;52.002;5.464;2023-07-09T07:00:09;101608.06;;;24.87;65.53
55187;BME280;55457;52.002;5.464;2023-07-09T07:02:34;101619.53;;;24.89;65.61
55187;BME280;55457;52.002;5.464;2023-07-09T07:05:00;101614.06;;;24.89;65.52
55187;BME280;55457;52.002;5.464;2023-07-09T07:07:25;101612.97;;;24.90;65.72
55187;BME280;55457;52.002;5.464;2023-07-09T07:09:50;101617.38;;;24.91;65.85
55187;BME280;55457;52.002;5.464;2023-07-09T07:12:27;101606.47;;;24.91;65.77
55187;BME280;55457;52.002;5.464;2023-07-09T07:14:53;101601.03;;;24.91;65.90
55187;BME280;55457;52.002;5.464;2023-07-09T07:17:19;101602.66;;;24.92;66.03
55187;BME280;55457;52.002;5.464;2023-07-09T07:19:45;101602.66;;;24.92;66.27
55187;BME280;55457;52.002;5.464;2023-07-09T07:22:10;101608.13;;;24.92;66.18
55187;BME280;55457;52.002;5.464;2023-07-09T07:24:36;101611.41;;;24.94;66.15
55187;BME280;55457;52.002;5.464;2023-07-09T07:27:01;101604.31;;;24.93;65.66
55187;BME280;55457;52.002;5.464;2023-07-09T07:29:27;101604.31;;;24.93;66.23
55187;BME280;55457;52.002;5.464;2023-07-09T07:31:53;101600.50;;;24.94;65.82
55187;BME280;55457;52.002;5.464;2023-07-09T07:34:19;101601.31;;;24.94;65.93
55187;BME280;55457;52.002;5.464;2023-07-09T07:36:44;101608.44;;;24.95;65.86
55187;BME280;55457;52.002;5.464;2023-07-09T07:39:10;101603.81;;;24.96;65.78
55187;BME280;55457;52.002;5.464;2023-07-09T07:41:35;101603.81;;;24.96;65.55
55187;BME280;55457;52.002;5.464;2023-07-09T07:44:01;101601.63;;;24.98;65.59
55187;BME280;55457;52.002;5.464;2023-07-09T07:46:26;101604.38;;;24.98;66.48
55187;BME280;55457;52.002;5.464;2023-07-09T07:48:51;101597.00;;;24.98;65.70
55187;BME280;55457;52.002;5.464;2023-07-09T07:51:17;101606.81;;;24.99;65.68
55187;BME280;55457;52.002;5.464;2023-07-09T07:53:42;101595.69;;;25.01;65.64
55187;BME280;55457;52.002;5.464;2023-07-09T07:56:08;101597.31;;;25.02;65.62
55187;BME280;55457;52.002;5.464;2023-07-09T07:58:33;101600.88;;;25.03;65.42
55187;BME280;55457;52.002;5.464;2023-07-09T08:00:59;101598.97;;;25.03;65.46
55187;BME280;55457;52.002;5.464;2023-07-09T08:03:25;101604.41;;;25.03;65.31
55187;BME280;55457;52.002;5.464;2023-07-09T08:05:51;101603.94;;;25.06;65.39
55187;BME280;55457;52.002;5.464;2023-07-09T08:08:16;101601.22;;;25.06;65.64
55187;BME280;55457;52.002;5.464;2023-07-09T08:10:42;101606.16;;;25.09;65.31
55187;BME280;55457;52.002;5.464;2023-07-09T08:13:07;101596.31;;;25.08;65.37
55187;BME280;55457;52.002;5.464;2023-07-09T08:15:34;101601.50;;;25.10;65.28
55187;BME280;55457;52.002;5.464;2023-07-09T08:17:59;101605.06;;;25.10;65.52
55187;BME280;55457;52.002;5.464;2023-07-09T08:20:25;101604.56;;;25.13;65.86
55187;BME280;55457;52.002;5.464;2023-07-09T08:22:50;101607.03;;;25.15;65.59
55187;BME280;55457;52.002;5.464;2023-07-09T08:25:16;101607.84;;;25.15;65.62
55187;BME280;55457;52.002;5.464;2023-07-09T08:27:41;101608.94;;;25.14;65.58
55187;BME280;55457;52.002;5.464;2023-07-09T08:30:07;101606.47;;;25.13;65.41
55187;BME280;55457;52.002;5.464;2023-07-09T08:32:33;101599.59;;;25.10;65.70
55187;BME280;55457;52.002;5.464;2023-07-09T08:34:58;101593.91;;;25.12;65.69
55187;BME280;55457;52.002;5.464;2023-07-09T08:37:23;101594.16;;;25.10;65.70
55187;BME280;55457;52.002;5.464;2023-07-09T08:39:49;101599.38;;;25.12;65.58
55187;BME280;55457;52.002;5.464;2023-07-09T08:42:20;101588.47;;;25.12;65.78
55187;BME280;55457;52.002;5.464;2023-07-09T08:45:00;101584.91;;;25.11;65.82
55187;BME280;55457;52.002;5.464;2023-07-09T08:47:56;101594.97;;;25.11;65.66
55187;BME280;55457;52.002;5.464;2023-07-09T08:50:35;101589.28;;;25.12;65.66
55187;BME280;55457;52.002;5.464;2023-07-09T08:53:01;101595.56;;;25.13;65.84
55187;BME280;55457;52.002;5.464;2023-07-09T08:55:30;101588.19;;;25.13;65.66
55187;BME280;55457;52.002;5.464;2023-07-09T08:58:10;101593.66;;;25.13;65.67
55187;BME280;55457;52.002;5.464;2023-07-09T09:00:40;101592.81;;;25.13;65.66
55187;BME280;55457;52.002;5.464;2023-07-09T09:03:22;101590.09;;;25.13;65.65
55187;BME280;55457;52.002;5.464;2023-07-09T09:05:52;101586.56;;;25.12;65.89
55187;BME280;55457;52.002;5.464;2023-07-09T09:13:36;101588.75;;;25.15;65.73
55187;BME280;55457;52.002;5.464;2023-07-09T09:16:09;101591.47;;;25.15;65.76
55187;BME280;55457;52.002;5.464;2023-07-09T09:18:41;101589.34;;;25.17;65.48
55187;BME280;55457;52.002;5.464;2023-07-09T09:21:25;101587.16;;;25.19;65.59
55187;BME280;55457;52.002;5.464;2023-07-09T09:23:54;101582.78;;;25.18;65.59
55187;BME280;55457;52.002;5.464;2023-07-09T09:26:30;101583.59;;;25.19;65.79
55187;BME280;55457;52.002;5.464;2023-07-09T09:28:56;101576.25;;;25.19;65.33
55187;BME280;55457;52.002;5.464;2023-07-09T09:31:24;101579.56;;;25.21;65.44
55187;BME280;55457;52.002;5.464;2023-07-09T09:33:50;101576.81;;;25.21;65.37
55187;BME280;55457;52.002;5.464;2023-07-09T09:36:19;101579.56;;;25.21;65.66
55187;BME280;55457;52.002;5.464;2023-07-09T09:38:45;101571.94;;;25.23;65.35
55187;BME280;55457;52.002;5.464;2023-07-09T09:41:19;101577.38;;;25.23;65.16
55187;BME280;55457;52.002;5.464;2023-07-09T09:43:46;101576.56;;;25.23;65.42
55187;BME280;55457;52.002;5.464;2023-07-09T09:46:17;101576.03;;;25.26;65.19
55187;BME280;55457;52.002;5.464;2023-07-09T09:48:45;101575.22;;;25.25;65.41
55187;BME280;55457;52.002;5.464;2023-07-09T09:51:12;101571.38;;;25.27;65.00
55187;BME280;55457;52.002;5.464;2023-07-09T09:53:41;101562.38;;;25.26;65.35
55187;BME280;55457;52.002;5.464;2023-07-09T09:56:15;101560.47;;;25.27;65.27
55187;BME280;55457;52.002;5.464;2023-07-09T09:58:43;101560.78;;;25.30;64.97
55187;BME280;55457;52.002;5.464;2023-07-09T10:01:17;101561.63;;;25.31;65.17
55187;BME280;55457;52.002;5.464;2023-07-09T10:03:43;101549.06;;;25.30;64.92
55187;BME280;55457;52.002;5.464;2023-07-09T10:06:21;101556.97;;;25.31;64.93
55187;BME280;55457;52.002;5.464;2023-07-09T10:09:07;101554.00;;;25.33;65.11
55187;BME280;55457;52.002;5.464;2023-07-09T10:14:33;101542.56;;;25.36;65.14
55187;BME280;55457;52.002;5.464;2023-07-09T10:17:05;101542.56;;;25.36;64.80
55187;BME280;55457;52.002;5.464;2023-07-09T10:19:57;101537.91;;;25.36;64.99
55187;BME280;55457;52.002;5.464;2023-07-09T10:22:40;101542.06;;;25.39;64.95
55187;BME280;55457;52.002;5.464;2023-07-09T10:25:32;101536.59;;;25.39;64.75
55187;BME280;55457;52.002;5.464;2023-07-09T10:34:00;101546.97;;;25.42;64.61
55187;BME280;55457;52.002;5.464;2023-07-09T10:41:31;101554.34;;;25.41;64.86
55187;BME280;55457;52.002;5.464;2023-07-09T10:44:02;101557.88;;;25.42;64.69
55187;BME280;55457;52.002;5.464;2023-07-09T10:46:33;101565.00;;;25.43;64.57
55187;BME280;55457;52.002;5.464;2023-07-09T10:49:00;101565.00;;;25.43;64.81
55187;BME280;55457;52.002;5.464;2023-07-09T10:51:37;101568.56;;;25.43;64.38
55187;BME280;55457;52.002;5.464;2023-07-09T10:54:24;101564.19;;;25.42;64.68
55187;BME280;55457;52.002;5.464;2023-07-09T10:56:56;101566.66;;;25.44;64.47
55187;BME280;55457;52.002;5.464;2023-07-09T10:59:35;101576.75;;;25.43;64.37
55187;BME280;55457;52.002;5.464;2023-07-09T11:02:27;101583.03;;;25.44;64.41
55187;BME280;55457;52.002;5.464;2023-07-09T11:05:05;101584.66;;;25.45;64.50
55187;BME280;55457;52.002;5.464;2023-07-09T11:07:43;101572.66;;;25.46;64.39
55187;BME280;55457;52.002;5.464;2023-07-09T11:13:11;101563.38;;;25.47;64.23
55187;BME280;55457;52.002;5.464;2023-07-09T11:15:37;101559.59;;;25.48;64.22
55187;BME280;55457;52.002;5.464;2023-07-09T11:18:06;101558.50;;;25.49;64.03
55187;BME280;55457;52.002;5.464;2023-07-09T11:20:35;101550.31;;;25.49;64.07
55187;BME280;55457;52.002;5.464;2023-07-09T11:25:48;101545.41;;;25.51;64.11
55187;BME280;55457;52.002;5.464;2023-07-09T11:28:14;101546.50;;;25.50;64.13
55187;BME280;55457;52.002;5.464;2023-07-09T11:30:50;101545.41;;;25.51;63.99
55187;BME280;55457;52.002;5.464;2023-07-09T11:33:27;101540.78;;;25.51;64.03
55187;BME280;55457;52.002;5.464;2023-07-09T11:36:06;101552.50;;;25.52;63.86
55187;BME280;55457;52.002;5.464;2023-07-09T11:38:43;101548.72;;;25.53;63.84
55187;BME280;55457;52.002;5.464;2023-07-09T11:41:38;101552.50;;;25.52;63.79
55187;BME280;55457;52.002;5.464;2023-07-09T11:46:31;101549.53;;;25.54;63.95
55187;BME280;55457;52.002;5.464;2023-07-09T11:48:57;101554.19;;;25.53;63.77
55187;BME280;55457;52.002;5.464;2023-07-09T11:51:38;101561.28;;;25.54;63.90
55187;BME280;55457;52.002;5.464;2023-07-09T11:54:05;101560.44;;;25.54;64.09
55187;BME280;55457;52.002;5.464;2023-07-09T11:56:31;101572.19;;;25.54;63.74
55187;BME280;55457;52.002;5.464;2023-07-09T11:58:57;101565.91;;;25.54;63.75
55187;BME280;55457;52.002;5.464;2023-07-09T12:01:29;101568.88;;;25.52;63.76
55187;BME280;55457;52.002;5.464;2023-07-09T12:03:56;101574.91;;;25.54;63.52
55187;BME280;55457;52.002;5.464;2023-07-09T12:06:27;101576.00;;;25.53;63.49
55187;BME280;55457;52.002;5.464;2023-07-09T12:08:54;101581.47;;;25.53;63.58
55187;BME280;55457;52.002;5.464;2023-07-09T12:11:33;101589.66;;;25.53;64.38
55187;BME280;55457;52.002;5.464;2023-07-09T12:14:10;101597.84;;;25.53;63.80
55187;BME280;55457;52.002;5.464;2023-07-09T12:16:40;101586.94;;;25.53;63.64
55187;BME280;55457;52.002;5.464;2023-07-09T12:19:06;101595.66;;;25.55;63.83
55187;BME280;55457;52.002;5.464;2023-07-09T12:21:35;101588.56;;;25.54;63.78
55187;BME280;55457;52.002;5.464;2023-07-09T12:24:01;101591.84;;;25.56;63.61
55187;BME280;55457;52.002;5.464;2023-07-09T12:26:30;101591.84;;;25.56;63.56
55187;BME280;55457;52.002;5.464;2023-07-09T12:28:57;101591.84;;;25.56;63.66
55187;BME280;55457;52.002;5.464;2023-07-09T12:31:29;101590.75;;;25.57;63.60
55187;BME280;55457;52.002;5.464;2023-07-09T12:33:57;101593.47;;;25.57;63.81
55187;BME280;55457;52.002;5.464;2023-07-09T12:36:26;101588.03;;;25.57;63.61
55187;BME280;55457;52.002;5.464;2023-07-09T12:38:56;101598.13;;;25.57;63.94
55187;BME280;55457;52.002;5.464;2023-07-09T12:41:32;101613.69;;;25.56;63.77
55187;BME280;55457;52.002;5.464;2023-07-09T12:44:00;101630.63;;;25.58;63.53
55187;BME280;55457;52.002;5.464;2023-07-09T12:46:25;101626.00;;;25.59;63.73
55187;BME280;55457;52.002;5.464;2023-07-09T12:48:54;101609.34;;;25.60;63.51
55187;BME280;55457;52.002;5.464;2023-07-09T12:51:23;101602.53;;;25.63;63.49
55187;BME280;55457;52.002;5.464;2023-07-09T12:54:12;101603.38;;;25.63;63.75
55187;BME280;55457;52.002;5.464;2023-07-09T12:56:38;101605.03;;;25.64;63.64
55187;BME280;55457;52.002;5.464;2023-07-09T12:59:17;101608.56;;;25.65;63.72
55187;BME280;55457;52.002;5.464;2023-07-09T13:01:59;101616.75;;;25.65;63.69
55187;BME280;55457;52.002;5.464;2023-07-09T13:04:33;101623.03;;;25.65;63.67
55187;BME280;55457;52.002;5.464;2023-07-09T13:07:00;101623.03;;;25.65;63.47
55187;BME280;55457;52.002;5.464;2023-07-09T13:09:27;101616.75;;;25.65;63.42
55187;BME280;55457;52.002;5.464;2023-07-09T13:11:54;101618.69;;;25.64;63.31
55187;BME280;55457;52.002;5.464;2023-07-09T13:14:29;101627.94;;;25.63;63.39
55187;BME280;55457;52.002;5.464;2023-07-09T13:17:09;101629.84;;;25.63;63.41
55187;BME280;55457;52.002;5.464;2023-07-09T13:19:35;101630.69;;;25.63;63.36
55187;BME280;55457;52.002;5.464;2023-07-09T13:22:02;101622.50;;;25.63;63.42
55187;BME280;55457;52.002;5.464;2023-07-09T13:24:30;101619.50;;;25.65;63.59
55187;BME280;55457;52.002;5.464;2023-07-09T13:26:57;101620.59;;;25.64;63.42